Time;durP1;ratioP1;P1;durP2;ratioP2;P2;SDS_P1;SDS_P2;PMS_P1;PMS_P2;Temp;Humidity;BMP_temperature;BMP_pressure;BME280_temperature;BME280_humidity;BME280_pressure;Samples;Min_cycle;Max_cycle;Signal;HPM_P1;HPM_P2
2023/07/31 00:00:38;;;;;;;7.72;3.78;;;;;;;;;;6273694;22;20012;-71
2023/07/31 00:03:03;;;;;;;6.25;3.65;;;;;;;;;;6274763;22;20006;-73
2023/07/31 00:05:30;;;;;;;7.10;3.85;;;;;;;;;;6274961;22;20012;-71
2023/07/31 00:07:56;;;;;;;5.75;3.75;;;;;;;;;;6275576;22;20006;-72
2023/07/31 00:10:22;;;;;;;6.75;3.08;;;;;;;;;;6275257;22;20054;-71
2023/07/31 00:12:48;;;;;;;5.63;3.50;;;;;;;;;;6273797;22;20011;-72
2023/07/31 00:15:15;;;;;;;6.63;3.58;;;;;;;;;;6273368;22;20026;-71
2023/07/31 00:17:41;;;;;;;10.85;3.85;;;;;;;;;;6248238;22;20011;-71
2023/07/31 00:20:08;;;;;;;9.00;4.47;;;;;;;;;;6248374;22;20011;-71
2023/07/31 00:22:34;;;;;;;5.22;3.47;;;;;;;;;;6273460;22;20023;-71
2023/07/31 00:25:00;;;;;;;10.20;3.00;;;;;;;;;;6275254;22;20014;-72
2023/07/31 00:27:26;;;;;;;7.00;3.15;;;;;;;;;;6275346;22;20049;-71
2023/07/31 00:29:52;;;;;;;9.27;3.40;;;;;;;;;;6273576;22;20011;-71
2023/07/31 00:32:18;;;;;;;5.38;3.15;;;;;;;;;;6250146;22;20438;-71
2023/07/31 00:34:47;;;;;;;6.65;3.30;;;;;;;;;;6275431;22;20032;-72
2023/07/31 00:37:15;;;;;;;5.43;3.30;;;;;;;;;;6249945;22;20430;-72
2023/07/31 00:39:41;;;;;;;8.95;3.42;;;;;;;;;;6277158;22;20430;-72
2023/07/31 00:42:07;;;;;;;7.70;3.25;;;;;;;;;;6277294;22;20401;-72
2023/07/31 00:44:34;;;;;;;8.20;3.63;;;;;;;;;;6276065;22;20427;-72
2023/07/31 00:47:00;;;;;;;6.22;3.22;;;;;;;;;;6277131;22;20360;-72
2023/07/31 00:49:27;;;;;;;7.75;3.20;;;;;;;;;;6277117;22;20585;-72
2023/07/31 00:51:54;;;;;;;5.93;3.65;;;;;;;;;;6275464;22;20419;-71
2023/07/31 00:54:20;;;;;;;5.60;3.55;;;;;;;;;;6273983;22;20011;-71
2023/07/31 00:56:48;;;;;;;8.73;3.38;;;;;;;;;;6277331;22;20006;-71
2023/07/31 00:59:14;;;;;;;7.18;3.45;;;;;;;;;;6275935;22;20038;-70
2023/07/31 01:01:41;;;;;;;6.63;3.30;;;;;;;;;;6277758;22;20381;-73
2023/07/31 01:04:08;;;;;;;7.13;4.07;;;;;;;;;;6276134;22;20007;-73
2023/07/31 01:06:45;;;;;;;6.55;3.53;;;;;;;;;;6170543;22;20003;-73
2023/07/31 01:09:22;;;;;;;9.48;4.00;;;;;;;;;;6276383;22;20111;-73
2023/07/31 01:11:53;;;;;;;5.57;3.60;;;;;;;;;;6277276;22;20022;-73
2023/07/31 01:14:19;;;;;;;7.35;3.97;;;;;;;;;;6277696;22;20041;-73
2023/07/31 01:16:45;;;;;;;6.80;3.28;;;;;;;;;;6277274;22;20073;-73
2023/07/31 01:19:14;;;;;;;5.50;3.25;;;;;;;;;;6249483;22;20043;-72
2023/07/31 01:21:46;;;;;;;13.13;3.67;;;;;;;;;;6249659;22;20012;-72
2023/07/31 01:24:43;;;;;;;6.35;3.20;;;;;;;;;;6274516;22;20073;-72
2023/07/31 01:27:09;;;;;;;5.32;3.35;;;;;;;;;;6274687;22;20074;-72
2023/07/31 01:30:16;;;;;;;5.78;3.50;;;;;;;;;;6249684;22;20397;-72
2023/07/31 01:32:44;;;;;;;6.60;3.60;;;;;;;;;;6179342;23;20111;-72
2023/07/31 01:35:10;;;;;;;10.98;3.72;;;;;;;;;;6254340;22;20017;-72
2023/07/31 01:37:36;;;;;;;8.15;4.03;;;;;;;;;;6273568;22;20097;-72
2023/07/31 01:40:05;;;;;;;9.50;4.22;;;;;;;;;;6271604;22;20446;-73
2023/07/31 01:42:31;;;;;;;11.20;3.75;;;;;;;;;;6245526;22;20016;-72
2023/07/31 01:44:57;;;;;;;13.68;3.90;;;;;;;;;;6245660;22;20453;-72
2023/07/31 01:47:23;;;;;;;9.98;4.03;;;;;;;;;;6273259;22;20136;-72
2023/07/31 01:49:50;;;;;;;7.55;3.70;;;;;;;;;;6271143;22;20016;-72
2023/07/31 01:52:16;;;;;;;7.65;4.20;;;;;;;;;;6271521;22;20091;-72
2023/07/31 01:54:43;;;;;;;7.50;4.38;;;;;;;;;;6272445;22;20010;-72
2023/07/31 01:57:09;;;;;;;8.15;4.10;;;;;;;;;;6272626;22;20016;-72
2023/07/31 01:59:35;;;;;;;6.05;3.40;;;;;;;;;;6142480;22;20054;-72
2023/07/31 02:02:01;;;;;;;12.18;4.30;;;;;;;;;;6246173;22;20019;-72
2023/07/31 02:04:27;;;;;;;9.25;3.53;;;;;;;;;;6245544;22;20112;-72
2023/07/31 02:06:53;;;;;;;9.98;4.38;;;;;;;;;;6271761;22;20027;-72
2023/07/31 02:09:19;;;;;;;5.80;3.70;;;;;;;;;;6271705;22;20015;-72
2023/07/31 02:11:45;;;;;;;8.43;3.95;;;;;;;;;;6245940;22;20015;-73
2023/07/31 02:14:11;;;;;;;7.75;4.00;;;;;;;;;;6142039;22;20031;-72
2023/07/31 02:16:46;;;;;;;10.65;3.70;;;;;;;;;;6246360;22;20384;-72
2023/07/31 02:19:12;;;;;;;6.43;3.42;;;;;;;;;;6271095;22;20054;-72
2023/07/31 02:21:38;;;;;;;12.07;3.85;;;;;;;;;;6245792;22;20008;-72
2023/07/31 02:24:04;;;;;;;9.65;4.03;;;;;;;;;;6272310;22;20042;-73
2023/07/31 02:26:30;;;;;;;6.90;3.50;;;;;;;;;;6246063;22;20015;-71
2023/07/31 02:28:57;;;;;;;7.57;3.83;;;;;;;;;;6272807;22;20089;-71
2023/07/31 02:31:23;;;;;;;7.22;4.25;;;;;;;;;;6246046;22;20035;-72
2023/07/31 02:33:49;;;;;;;9.93;3.90;;;;;;;;;;6245605;22;20012;-71
2023/07/31 02:36:15;;;;;;;12.30;4.32;;;;;;;;;;6272297;22;20035;-71
2023/07/31 02:38:41;;;;;;;10.38;4.22;;;;;;;;;;6246877;22;20073;-70
2023/07/31 02:41:07;;;;;;;8.18;4.50;;;;;;;;;;6246293;22;20011;-71
2023/07/31 02:43:33;;;;;;;9.88;4.50;;;;;;;;;;6272133;22;20018;-71
2023/07/31 02:46:00;;;;;;;8.85;4.10;;;;;;;;;;6246029;22;20041;-71
2023/07/31 02:48:26;;;;;;;11.43;4.15;;;;;;;;;;6273019;22;20011;-72
2023/07/31 02:51:02;;;;;;;5.95;3.72;;;;;;;;;;6245902;22;20014;-72
2023/07/31 02:53:29;;;;;;;9.75;4.40;;;;;;;;;;6271842;22;20396;-72
2023/07/31 02:55:55;;;;;;;9.02;4.30;;;;;;;;;;6246170;22;20030;-72
2023/07/31 02:58:24;;;;;;;11.43;4.60;;;;;;;;;;6272717;22;20014;-72
2023/07/31 03:00:53;;;;;;;8.10;3.90;;;;;;;;;;6271095;22;20012;-73
2023/07/31 03:03:19;;;;;;;9.88;4.10;;;;;;;;;;6270854;22;20018;-73
2023/07/31 03:05:45;;;;;;;9.32;4.40;;;;;;;;;;6245556;22;20007;-73
2023/07/31 03:08:11;;;;;;;8.57;4.07;;;;;;;;;;6245383;22;20059;-72
2023/07/31 03:10:37;;;;;;;7.32;4.10;;;;;;;;;;6245475;22;20004;-72
2023/07/31 03:13:04;;;;;;;15.18;4.90;;;;;;;;;;6272083;22;20016;-71
2023/07/31 03:15:30;;;;;;;8.60;4.32;;;;;;;;;;6245447;22;20004;-72
2023/07/31 03:17:57;;;;;;;6.13;3.67;;;;;;;;;;6245424;22;20047;-72
2023/07/31 03:20:23;;;;;;;10.20;4.35;;;;;;;;;;6245875;22;20007;-72
2023/07/31 03:22:49;;;;;;;10.30;4.63;;;;;;;;;;6247047;22;20121;-71
2023/07/31 03:25:16;;;;;;;9.90;4.80;;;;;;;;;;6246932;22;20014;-71
2023/07/31 03:27:42;;;;;;;9.57;5.70;;;;;;;;;;6247234;22;20022;-71
2023/07/31 03:30:08;;;;;;;8.63;4.55;;;;;;;;;;6275902;22;20433;-71
2023/07/31 03:32:34;;;;;;;11.77;5.75;;;;;;;;;;6276067;22;20066;-71
2023/07/31 03:35:01;;;;;;;9.23;3.90;;;;;;;;;;6276549;22;20433;-70
2023/07/31 03:37:27;;;;;;;9.38;5.00;;;;;;;;;;6273374;22;20011;-70
2023/07/31 03:39:57;;;;;;;10.05;4.80;;;;;;;;;;6245390;22;20015;-70
2023/07/31 03:53:31;;;;;;;9.18;4.30;;;;;;;;;;6226764;22;20027;-73
2023/07/31 03:56:14;;;;;;;10.63;4.13;;;;;;;;;;6273478;22;20015;-73
2023/07/31 03:58:43;;;;;;;6.13;4.00;;;;;;;;;;6272814;22;20248;-72
2023/07/31 04:01:09;;;;;;;7.05;4.13;;;;;;;;;;6271738;22;20008;-72
2023/07/31 04:03:35;;;;;;;11.48;3.40;;;;;;;;;;6272100;22;20098;-72
2023/07/31 04:06:01;;;;;;;8.77;3.60;;;;;;;;;;6272571;22;20034;-72
2023/07/31 04:08:28;;;;;;;9.85;4.32;;;;;;;;;;6272560;22;20015;-72
2023/07/31 04:10:54;;;;;;;12.77;4.65;;;;;;;;;;6272155;22;20008;-72
2023/07/31 04:13:21;;;;;;;15.40;4.05;;;;;;;;;;6272784;22;20399;-70
2023/07/31 04:15:50;;;;;;;17.10;5.10;;;;;;;;;;6247157;22;20031;-71
2023/07/31 04:18:17;;;;;;;8.10;3.75;;;;;;;;;;6274064;22;20431;-71
2023/07/31 04:20:46;;;;;;;9.95;4.53;;;;;;;;;;6275189;22;20006;-70
2023/07/31 04:23:12;;;;;;;10.43;4.30;;;;;;;;;;6273568;22;20035;-71
2023/07/31 04:25:39;;;;;;;12.93;4.40;;;;;;;;;;6275086;22;19996;-71
2023/07/31 04:28:05;;;;;;;13.15;4.45;;;;;;;;;;6275117;22;20090;-71
2023/07/31 04:30:31;;;;;;;14.93;4.35;;;;;;;;;;6248154;22;20004;-71
2023/07/31 04:32:57;;;;;;;17.23;4.55;;;;;;;;;;6273833;22;20061;-71
2023/07/31 04:35:23;;;;;;;12.73;4.55;;;;;;;;;;6274717;22;20013;-71
2023/07/31 04:37:49;;;;;;;17.48;4.03;;;;;;;;;;6275303;22;20019;-71
2023/07/31 04:40:17;;;;;;;7.75;3.88;;;;;;;;;;6248669;22;20014;-71
2023/07/31 04:42:43;;;;;;;13.05;3.72;;;;;;;;;;6275064;22;20022;-71
2023/07/31 04:45:09;;;;;;;5.60;3.58;;;;;;;;;;6273569;22;20000;-71
2023/07/31 04:47:35;;;;;;;10.23;3.83;;;;;;;;;;6274083;22;20008;-71
2023/07/31 04:50:01;;;;;;;18.02;4.97;;;;;;;;;;6275082;22;20158;-72
2023/07/31 04:52:28;;;;;;;8.70;3.83;;;;;;;;;;6275453;22;20012;-72
2023/07/31 04:54:53;;;;;;;10.20;4.38;;;;;;;;;;6275260;22;20004;-72
2023/07/31 04:57:20;;;;;;;9.38;4.03;;;;;;;;;;6274015;22;20062;-71
2023/07/31 04:59:47;;;;;;;11.82;3.95;;;;;;;;;;6275517;22;20426;-71
2023/07/31 05:02:16;;;;;;;8.15;3.70;;;;;;;;;;6275282;22;20008;-73
2023/07/31 05:04:42;;;;;;;11.35;4.00;;;;;;;;;;6275537;22;19995;-72
2023/07/31 05:07:08;;;;;;;6.65;3.80;;;;;;;;;;6275236;22;20057;-73
2023/07/31 05:09:35;;;;;;;7.68;3.60;;;;;;;;;;6249037;22;20098;-72
2023/07/31 05:12:02;;;;;;;7.57;3.55;;;;;;;;;;6273813;22;20450;-72
2023/07/31 05:14:28;;;;;;;14.02;3.67;;;;;;;;;;6274847;22;20422;-72
2023/07/31 05:16:55;;;;;;;10.05;3.78;;;;;;;;;;6273945;22;20093;-72
2023/07/31 05:19:20;;;;;;;9.82;3.67;;;;;;;;;;6276155;22;20003;-72
2023/07/31 05:21:46;;;;;;;8.38;3.50;;;;;;;;;;6278357;22;20014;-72
2023/07/31 05:24:12;;;;;;;11.88;4.07;;;;;;;;;;6277415;22;20031;-72
2023/07/31 05:26:39;;;;;;;9.25;3.63;;;;;;;;;;6277543;22;20442;-73
2023/07/31 05:29:04;;;;;;;8.98;3.80;;;;;;;;;;6275856;22;20008;-72
2023/07/31 05:31:32;;;;;;;5.25;3.47;;;;;;;;;;6275706;22;20391;-73
2023/07/31 05:33:58;;;;;;;9.52;3.78;;;;;;;;;;6276446;22;20418;-72
2023/07/31 05:36:24;;;;;;;9.80;3.92;;;;;;;;;;6277857;22;20324;-72
2023/07/31 05:38:50;;;;;;;8.93;3.70;;;;;;;;;;6277113;22;20418;-72
2023/07/31 05:41:18;;;;;;;10.90;4.20;;;;;;;;;;6275772;22;20350;-72
2023/07/31 05:43:44;;;;;;;8.43;3.63;;;;;;;;;;6277478;22;20315;-72
2023/07/31 05:46:11;;;;;;;10.30;4.10;;;;;;;;;;6277922;22;20012;-72
2023/07/31 05:48:37;;;;;;;14.55;4.50;;;;;;;;;;6277556;22;20326;-71
2023/07/31 05:51:04;;;;;;;10.98;3.58;;;;;;;;;;6275442;22;20315;-71
2023/07/31 05:53:30;;;;;;;10.98;3.60;;;;;;;;;;6276880;22;20014;-71
2023/07/31 05:55:56;;;;;;;6.93;3.25;;;;;;;;;;6275639;22;20016;-72
2023/07/31 05:58:22;;;;;;;9.23;3.47;;;;;;;;;;6277364;22;20374;-72
2023/07/31 06:00:48;;;;;;;8.20;3.50;;;;;;;;;;6277899;22;20065;-73
2023/07/31 06:03:14;;;;;;;5.57;3.00;;;;;;;;;;6277050;22;20046;-72
2023/07/31 06:05:40;;;;;;;10.48;4.03;;;;;;;;;;6277270;22;20086;-73
2023/07/31 06:08:06;;;;;;;9.65;3.55;;;;;;;;;;6276846;22;20030;-73
2023/07/31 06:10:32;;;;;;;9.30;4.25;;;;;;;;;;6276445;22;20058;-72
2023/07/31 06:12:58;;;;;;;11.45;3.67;;;;;;;;;;6275809;22;20438;-72
2023/07/31 06:15:24;;;;;;;9.55;3.80;;;;;;;;;;6276927;22;20048;-72
2023/07/31 06:17:50;;;;;;;7.07;4.13;;;;;;;;;;6276589;22;20186;-72
2023/07/31 06:20:16;;;;;;;6.30;3.90;;;;;;;;;;6276360;22;20434;-72
2023/07/31 06:22:45;;;;;;;6.15;3.67;;;;;;;;;;6276718;22;20006;-72
2023/07/31 06:25:12;;;;;;;9.45;3.50;;;;;;;;;;6274787;22;20031;-72
2023/07/31 06:27:38;;;;;;;5.95;3.00;;;;;;;;;;6276918;22;20004;-72
2023/07/31 06:30:12;;;;;;;3.40;3.00;;;;;;;;;;6276273;22;20008;-72
2023/07/31 06:32:40;;;;;;;7.70;3.65;;;;;;;;;;6276277;22;20012;-73
2023/07/31 06:35:10;;;;;;;5.25;3.20;;;;;;;;;;6275919;22;20004;-73
2023/07/31 06:37:40;;;;;;;4.45;3.05;;;;;;;;;;6276222;22;20038;-73
2023/07/31 06:40:11;;;;;;;4.72;3.25;;;;;;;;;;6275698;22;20066;-72
2023/07/31 06:42:49;;;;;;;5.22;3.30;;;;;;;;;;6249424;22;20457;-72
2023/07/31 06:45:18;;;;;;;7.50;4.25;;;;;;;;;;6147178;22;20015;-72
2023/07/31 06:47:47;;;;;;;8.52;3.45;;;;;;;;;;6276517;22;20422;-73
2023/07/31 06:50:16;;;;;;;4.57;2.97;;;;;;;;;;6276012;22;20035;-73
2023/07/31 06:52:46;;;;;;;5.07;3.30;;;;;;;;;;6273787;22;20018;-73
2023/07/31 06:55:26;;;;;;;6.80;3.22;;;;;;;;;;6275469;22;20015;-72
2023/07/31 06:57:54;;;;;;;5.40;2.72;;;;;;;;;;6276124;22;20394;-72
2023/07/31 07:00:23;;;;;;;8.05;5.20;;;;;;;;;;6276547;22;20007;-71
2023/07/31 07:02:53;;;;;;;7.25;3.40;;;;;;;;;;6276516;22;20023;-72
2023/07/31 07:05:22;;;;;;;6.22;3.10;;;;;;;;;;6276016;22;20005;-71
2023/07/31 07:07:51;;;;;;;5.10;3.88;;;;;;;;;;6276556;22;20055;-71
2023/07/31 07:10:19;;;;;;;7.97;3.30;;;;;;;;;;6276556;22;20003;-71
2023/07/31 07:12:45;;;;;;;7.43;3.50;;;;;;;;;;6276396;22;20012;-72
2023/07/31 07:15:11;;;;;;;13.05;3.90;;;;;;;;;;6276744;22;20106;-71
2023/07/31 07:17:38;;;;;;;8.13;3.45;;;;;;;;;;6276280;22;20031;-71
2023/07/31 07:20:04;;;;;;;6.85;3.53;;;;;;;;;;6276363;22;20030;-71
2023/07/31 07:22:30;;;;;;;4.63;3.15;;;;;;;;;;6276522;22;20087;-72
2023/07/31 07:24:56;;;;;;;4.82;3.10;;;;;;;;;;6248941;22;20031;-73
2023/07/31 07:27:22;;;;;;;5.40;3.25;;;;;;;;;;6275984;22;20019;-72
2023/07/31 07:29:51;;;;;;;9.50;3.13;;;;;;;;;;6276858;22;20014;-72
2023/07/31 07:32:18;;;;;;;7.18;3.60;;;;;;;;;;6276269;22;20007;-72
2023/07/31 07:34:44;;;;;;;6.53;3.40;;;;;;;;;;6275516;22;20012;-71
2023/07/31 07:37:11;;;;;;;5.22;2.83;;;;;;;;;;6273941;22;20093;-72
2023/07/31 07:39:37;;;;;;;5.43;2.88;;;;;;;;;;6275060;22;20014;-71
2023/07/31 07:42:05;;;;;;;11.55;3.67;;;;;;;;;;6275481;22;20066;-71
2023/07/31 07:44:31;;;;;;;8.60;3.70;;;;;;;;;;6274956;22;20382;-71
2023/07/31 07:46:57;;;;;;;6.20;3.30;;;;;;;;;;6275478;22;20015;-71
2023/07/31 07:49:23;;;;;;;6.30;5.28;;;;;;;;;;6275451;22;20058;-71
2023/07/31 07:51:51;;;;;;;9.45;3.30;;;;;;;;;;6275471;22;20025;-72
2023/07/31 07:54:17;;;;;;;7.00;3.75;;;;;;;;;;6275276;22;20004;-71
2023/07/31 07:56:43;;;;;;;10.35;4.03;;;;;;;;;;6275370;22;20066;-72
2023/07/31 07:59:09;;;;;;;8.77;3.45;;;;;;;;;;6171031;22;20197;-71
2023/07/31 08:01:35;;;;;;;9.18;3.20;;;;;;;;;;6273725;22;20063;-72
2023/07/31 08:04:05;;;;;;;7.32;2.83;;;;;;;;;;6274870;22;20053;-71
2023/07/31 08:06:34;;;;;;;6.30;3.28;;;;;;;;;;6145030;22;20015;-72
2023/07/31 08:09:05;;;;;;;5.35;3.25;;;;;;;;;;6275212;22;20016;-71
2023/07/31 08:11:41;;;;;;;4.88;2.85;;;;;;;;;;6275385;22;20014;-73
2023/07/31 08:14:35;;;;;;;8.23;3.30;;;;;;;;;;6248179;22;20015;-74
2023/07/31 08:17:12;;;;;;;7.00;4.03;;;;;;;;;;6270919;22;20022;-73
2023/07/31 08:20:04;;;;;;;5.18;2.70;;;;;;;;;;6254719;22;20113;-73
2023/07/31 08:22:32;;;;;;;3.55;2.53;;;;;;;;;;6275402;22;20015;-72
2023/07/31 08:25:06;;;;;;;5.93;2.70;;;;;;;;;;6275552;22;20050;-72
2023/07/31 08:27:32;;;;;;;8.15;3.25;;;;;;;;;;6275001;22;20012;-74
2023/07/31 08:29:58;;;;;;;10.38;3.30;;;;;;;;;;6275325;22;20057;-74
2023/07/31 08:32:25;;;;;;;6.32;3.10;;;;;;;;;;6274847;22;20015;-73
2023/07/31 08:34:50;;;;;;;3.75;3.08;;;;;;;;;;6273054;22;20011;-73
2023/07/31 08:37:16;;;;;;;5.22;3.00;;;;;;;;;;6274968;22;20342;-73
2023/07/31 08:39:42;;;;;;;7.45;2.72;;;;;;;;;;6275015;22;20026;-72
2023/07/31 08:42:09;;;;;;;4.97;3.00;;;;;;;;;;6273075;22;20446;-72
2023/07/31 08:44:36;;;;;;;7.32;3.13;;;;;;;;;;6273066;22;20042;-72
2023/07/31 08:47:02;;;;;;;5.72;3.08;;;;;;;;;;6274926;22;20007;-72
2023/07/31 08:49:30;;;;;;;6.57;3.20;;;;;;;;;;6274928;22;20000;-73
2023/07/31 08:51:57;;;;;;;4.63;3.35;;;;;;;;;;6275346;22;20012;-73
2023/07/31 08:54:30;;;;;;;5.15;2.92;;;;;;;;;;6250200;22;20099;-73
2023/07/31 08:57:00;;;;;;;3.95;2.63;;;;;;;;;;6276973;22;20058;-73
2023/07/31 08:59:34;;;;;;;9.52;3.72;;;;;;;;;;6276892;22;20007;-72
2023/07/31 09:02:08;;;;;;;5.60;2.95;;;;;;;;;;6277089;22;20018;-72
2023/07/31 09:04:38;;;;;;;6.13;3.20;;;;;;;;;;6276814;22;20043;-72
2023/07/31 09:07:13;;;;;;;5.68;2.55;;;;;;;;;;6276229;22;20229;-72
2023/07/31 09:09:39;;;;;;;10.73;3.95;;;;;;;;;;6275046;22;20011;-71
2023/07/31 09:12:06;;;;;;;6.82;3.05;;;;;;;;;;6275926;22;20003;-71
2023/07/31 09:14:33;;;;;;;6.25;3.35;;;;;;;;;;6249715;22;20384;-73
2023/07/31 09:16:59;;;;;;;3.88;2.90;;;;;;;;;;6277181;22;20315;-72
2023/07/31 09:19:27;;;;;;;5.38;2.90;;;;;;;;;;6277035;22;20018;-72
2023/07/31 09:21:54;;;;;;;6.57;3.00;;;;;;;;;;6276488;22;20004;-72
2023/07/31 09:24:35;;;;;;;7.00;2.83;;;;;;;;;;6276609;22;20012;-72
2023/07/31 09:27:02;;;;;;;9.25;3.00;;;;;;;;;;6276600;22;20087;-72
2023/07/31 09:29:29;;;;;;;3.67;2.60;;;;;;;;;;6276316;22;20000;-71
2023/07/31 09:31:56;;;;;;;4.97;2.42;;;;;;;;;;6276673;22;20015;-72
2023/07/31 09:34:30;;;;;;;6.72;2.58;;;;;;;;;;6276452;22;20095;-73
2023/07/31 09:37:01;;;;;;;5.05;2.83;;;;;;;;;;6276717;22;20537;-73
2023/07/31 09:39:27;;;;;;;6.60;3.10;;;;;;;;;;6275762;22;20016;-73
2023/07/31 09:41:56;;;;;;;4.97;2.67;;;;;;;;;;6276668;22;20426;-72
2023/07/31 09:44:39;;;;;;;5.55;2.72;;;;;;;;;;6146593;22;20469;-72
2023/07/31 09:47:05;;;;;;;6.43;3.20;;;;;;;;;;6276549;22;20472;-73
2023/07/31 09:49:31;;;;;;;8.82;3.00;;;;;;;;;;6276621;22;20311;-73
2023/07/31 09:51:56;;;;;;;4.15;3.00;;;;;;;;;;6276579;22;20018;-73
2023/07/31 09:54:23;;;;;;;4.00;3.30;;;;;;;;;;6274596;22;20015;-72
2023/07/31 09:56:49;;;;;;;6.53;3.55;;;;;;;;;;6276190;22;20012;-72
2023/07/31 09:59:17;;;;;;;6.45;3.67;;;;;;;;;;6274783;22;20019;-72
2023/07/31 10:01:44;;;;;;;5.30;3.63;;;;;;;;;;6249261;22;20015;-73
2023/07/31 10:04:11;;;;;;;9.23;3.70;;;;;;;;;;6276442;22;20448;-72
2023/07/31 10:06:38;;;;;;;5.75;3.88;;;;;;;;;;6276536;22;20016;-72
2023/07/31 10:09:09;;;;;;;7.13;3.75;;;;;;;;;;6249211;22;20098;-72
2023/07/31 10:11:41;;;;;;;6.80;4.00;;;;;;;;;;6276019;22;20062;-72
2023/07/31 10:14:07;;;;;;;5.82;3.92;;;;;;;;;;6276255;22;20015;-74
2023/07/31 10:16:35;;;;;;;6.70;3.80;;;;;;;;;;6276426;22;20038;-72
2023/07/31 10:19:01;;;;;;;7.07;3.03;;;;;;;;;;6276184;22;20007;-72
2023/07/31 10:21:28;;;;;;;10.45;3.70;;;;;;;;;;6276406;22;20377;-72
2023/07/31 10:23:59;;;;;;;7.22;3.42;;;;;;;;;;6249202;22;20012;-73
2023/07/31 10:26:27;;;;;;;6.75;3.80;;;;;;;;;;6275159;22;20046;-74
2023/07/31 10:28:53;;;;;;;5.95;3.40;;;;;;;;;;6276184;22;20007;-73
2023/07/31 10:31:19;;;;;;;5.80;3.72;;;;;;;;;;6275149;22;20489;-73
2023/07/31 10:33:47;;;;;;;6.95;3.30;;;;;;;;;;6275923;22;20423;-73
2023/07/31 10:36:17;;;;;;;3.70;3.05;;;;;;;;;;6276208;22;20007;-74
2023/07/31 10:38:44;;;;;;;4.93;3.40;;;;;;;;;;6273588;22;20071;-74
2023/07/31 10:41:10;;;;;;;3.60;3.25;;;;;;;;;;6276064;22;20038;-74
2023/07/31 10:43:39;;;;;;;3.45;2.83;;;;;;;;;;6249676;22;20453;-76
2023/07/31 10:46:11;;;;;;;7.43;3.03;;;;;;;;;;6276311;22;20014;-74
2023/07/31 10:48:41;;;;;;;4.32;3.00;;;;;;;;;;6276394;22;20086;-75
2023/07/31 10:51:12;;;;;;;5.03;3.20;;;;;;;;;;6276121;22;20062;-75
2023/07/31 10:53:40;;;;;;;4.45;2.80;;;;;;;;;;6274053;22;20022;-74
2023/07/31 10:56:08;;;;;;;4.10;3.40;;;;;;;;;;6276950;22;20338;-75
2023/07/31 10:58:36;;;;;;;5.63;3.25;;;;;;;;;;6275858;22;20015;-74
2023/07/31 11:01:04;;;;;;;6.60;3.40;;;;;;;;;;6275724;22;20008;-74
2023/07/31 11:03:49;;;;;;;5.07;3.28;;;;;;;;;;6275967;22;20012;-74
2023/07/31 11:06:18;;;;;;;12.75;3.85;;;;;;;;;;6170928;22;20016;-76
2023/07/31 11:08:51;;;;;;;4.57;2.85;;;;;;;;;;6276031;22;20008;-76
2023/07/31 11:11:19;;;;;;;3.97;2.72;;;;;;;;;;6248475;22;20458;-73
2023/07/31 11:13:53;;;;;;;6.50;3.47;;;;;;;;;;6248129;22;20007;-74
2023/07/31 11:16:25;;;;;;;3.95;3.25;;;;;;;;;;6247776;22;20552;-74
2023/07/31 11:18:53;;;;;;;3.80;2.72;;;;;;;;;;6275235;22;20015;-73
2023/07/31 11:21:25;;;;;;;4.55;3.08;;;;;;;;;;6275431;22;20045;-74
2023/07/31 11:24:18;;;;;;;4.88;2.90;;;;;;;;;;6273755;22;20379;-73
2023/07/31 11:27:09;;;;;;;7.10;3.05;;;;;;;;;;6274828;22;20050;-75
2023/07/31 11:29:35;;;;;;;5.75;3.28;;;;;;;;;;6274082;22;20066;-75
2023/07/31 11:32:01;;;;;;;5.00;3.30;;;;;;;;;;6273404;22;20004;-75
2023/07/31 11:34:26;;;;;;;5.60;3.38;;;;;;;;;;6273792;22;20082;-74
2023/07/31 11:36:56;;;;;;;4.93;3.03;;;;;;;;;;6275314;22;20000;-73
2023/07/31 11:39:26;;;;;;;4.40;3.30;;;;;;;;;;6247137;22;20030;-74
2023/07/31 11:42:00;;;;;;;4.45;3.30;;;;;;;;;;6274703;22;20003;-74
2023/07/31 11:44:36;;;;;;;7.63;3.20;;;;;;;;;;6247877;22;20098;-74
2023/07/31 11:47:04;;;;;;;5.35;2.80;;;;;;;;;;6273647;22;20465;-76
2023/07/31 11:49:31;;;;;;;4.95;3.20;;;;;;;;;;6275345;22;20007;-76
2023/07/31 11:51:58;;;;;;;3.97;3.00;;;;;;;;;;6275175;22;20012;-74
2023/07/31 11:54:24;;;;;;;4.88;3.30;;;;;;;;;;6274443;22;20054;-75
2023/07/31 11:56:50;;;;;;;4.88;2.70;;;;;;;;;;6275157;22;20039;-75
2023/07/31 11:59:17;;;;;;;5.80;3.28;;;;;;;;;;6247502;22;20010;-75
2023/07/31 12:01:43;;;;;;;6.03;3.40;;;;;;;;;;6273278;22;20350;-74
2023/07/31 12:04:09;;;;;;;5.32;3.33;;;;;;;;;;6247469;22;20000;-75
2023/07/31 12:06:36;;;;;;;4.10;3.15;;;;;;;;;;6274917;22;20560;-76
2023/07/31 12:09:06;;;;;;;5.10;3.30;;;;;;;;;;6275183;22;20003;-77
2023/07/31 12:11:46;;;;;;;5.47;3.17;;;;;;;;;;6275288;22;20016;-76
2023/07/31 12:14:26;;;;;;;4.70;3.20;;;;;;;;;;6274289;22;20011;-74
2023/07/31 12:16:57;;;;;;;6.35;3.85;;;;;;;;;;6247329;22;20070;-73
2023/07/31 12:19:27;;;;;;;4.60;2.88;;;;;;;;;;6273188;22;20587;-73
2023/07/31 12:21:54;;;;;;;6.45;3.13;;;;;;;;;;6271983;22;20022;-75
2023/07/31 12:24:20;;;;;;;7.35;3.10;;;;;;;;;;6274699;22;20008;-74
2023/07/31 12:26:47;;;;;;;7.13;3.20;;;;;;;;;;6275381;22;20012;-74
2023/07/31 12:29:13;;;;;;;5.45;3.38;;;;;;;;;;6272965;22;20039;-73
2023/07/31 12:31:41;;;;;;;7.93;3.72;;;;;;;;;;6274946;22;20003;-75
2023/07/31 12:34:17;;;;;;;4.40;3.13;;;;;;;;;;6274769;22;20501;-74
2023/07/31 12:36:43;;;;;;;3.90;3.15;;;;;;;;;;6274066;22;20039;-75
2023/07/31 12:39:09;;;;;;;5.40;3.03;;;;;;;;;;6275218;22;20007;-73
2023/07/31 12:41:36;;;;;;;5.00;3.22;;;;;;;;;;6274361;22;20031;-73
2023/07/31 12:44:03;;;;;;;3.92;2.72;;;;;;;;;;6272967;22;20124;-75
2023/07/31 12:46:29;;;;;;;4.80;3.05;;;;;;;;;;6275186;22;20012;-74
2023/07/31 12:48:55;;;;;;;4.72;3.17;;;;;;;;;;6275554;22;20355;-73
2023/07/31 12:51:21;;;;;;;6.45;3.08;;;;;;;;;;6273304;22;20012;-75
2023/07/31 12:53:46;;;;;;;4.35;3.05;;;;;;;;;;6274484;22;20000;-74
2023/07/31 12:56:13;;;;;;;4.05;2.78;;;;;;;;;;6275092;22;20059;-73
2023/07/31 12:58:38;;;;;;;3.67;2.80;;;;;;;;;;6273477;22;20011;-74
2023/07/31 13:01:06;;;;;;;6.28;3.20;;;;;;;;;;6274708;22;20011;-73
2023/07/31 13:03:32;;;;;;;4.30;3.10;;;;;;;;;;6248212;22;20090;-74
2023/07/31 13:05:58;;;;;;;5.78;3.10;;;;;;;;;;6273633;22;20394;-74
2023/07/31 13:08:24;;;;;;;4.47;2.88;;;;;;;;;;6275045;22;20027;-73
2023/07/31 13:10:51;;;;;;;5.10;3.17;;;;;;;;;;6275345;22;20031;-74
2023/07/31 13:13:16;;;;;;;3.72;2.95;;;;;;;;;;6275225;22;20031;-74
2023/07/31 13:15:43;;;;;;;5.28;3.30;;;;;;;;;;6275010;22;20015;-74
2023/07/31 13:18:09;;;;;;;4.65;3.05;;;;;;;;;;6274782;22;20007;-73
2023/07/31 13:20:35;;;;;;;3.80;2.83;;;;;;;;;;6248312;22;20019;-76
2023/07/31 13:23:01;;;;;;;3.50;2.72;;;;;;;;;;6273542;22;20423;-74
2023/07/31 13:25:27;;;;;;;5.65;2.80;;;;;;;;;;6245190;22;20004;-72
2023/07/31 13:27:53;;;;;;;3.50;2.90;;;;;;;;;;6273331;22;20008;-73
2023/07/31 13:30:19;;;;;;;4.80;2.90;;;;;;;;;;6274495;22;20026;-74
2023/07/31 13:32:45;;;;;;;4.93;2.90;;;;;;;;;;6274267;22;20008;-73
2023/07/31 13:35:11;;;;;;;5.68;2.90;;;;;;;;;;6274302;22;20106;-73
2023/07/31 13:37:38;;;;;;;4.80;2.92;;;;;;;;;;6273872;22;20000;-73
2023/07/31 13:40:05;;;;;;;3.72;2.53;;;;;;;;;;6275602;22;20015;-73
2023/07/31 13:42:31;;;;;;;6.72;3.13;;;;;;;;;;6277009;22;20387;-74
2023/07/31 13:44:57;;;;;;;6.80;3.30;;;;;;;;;;6250415;22;20035;-74
2023/07/31 13:47:23;;;;;;;3.58;2.70;;;;;;;;;;6276553;22;20007;-72
2023/07/31 13:49:49;;;;;;;3.00;2.58;;;;;;;;;;6276292;22;20012;-74
2023/07/31 13:52:15;;;;;;;4.70;2.80;;;;;;;;;;6276800;22;20307;-73
2023/07/31 13:54:42;;;;;;;3.70;3.15;;;;;;;;;;6275260;22;20014;-72
2023/07/31 13:57:08;;;;;;;4.68;2.63;;;;;;;;;;6275308;22;20426;-72
2023/07/31 13:59:35;;;;;;;8.48;3.03;;;;;;;;;;6247954;22;20454;-73
2023/07/31 14:02:03;;;;;;;3.03;2.45;;;;;;;;;;6248223;22;20029;-73
2023/07/31 14:04:29;;;;;;;4.50;2.97;;;;;;;;;;6275449;22;20000;-72
2023/07/31 14:06:56;;;;;;;4.68;3.33;;;;;;;;;;6273251;22;20090;-73
2023/07/31 14:09:22;;;;;;;4.15;3.03;;;;;;;;;;6274465;22;20435;-72
2023/07/31 14:11:48;;;;;;;5.32;3.08;;;;;;;;;;6248206;22;20004;-73
2023/07/31 14:14:14;;;;;;;3.78;2.92;;;;;;;;;;6274734;22;20008;-72
2023/07/31 14:16:39;;;;;;;5.63;3.17;;;;;;;;;;6272435;22;20011;-73
2023/07/31 14:19:07;;;;;;;3.90;2.95;;;;;;;;;;6275190;22;20066;-73
2023/07/31 14:21:33;;;;;;;3.70;2.97;;;;;;;;;;6272374;22;20610;-72
2023/07/31 14:23:58;;;;;;;4.35;3.22;;;;;;;;;;6273822;22;20007;-74
2023/07/31 14:26:24;;;;;;;6.30;2.90;;;;;;;;;;6275440;22;20004;-73
2023/07/31 14:28:50;;;;;;;7.22;3.50;;;;;;;;;;6247065;22;20015;-74
2023/07/31 14:31:16;;;;;;;7.57;3.10;;;;;;;;;;6274138;22;20003;-74
2023/07/31 14:33:42;;;;;;;3.85;2.97;;;;;;;;;;6275196;22;20342;-73
2023/07/31 14:36:08;;;;;;;4.93;3.17;;;;;;;;;;6273735;22;20149;-73
2023/07/31 14:38:34;;;;;;;4.00;3.10;;;;;;;;;;6274919;22;20062;-73
2023/07/31 14:40:59;;;;;;;5.13;3.28;;;;;;;;;;6275191;22;20613;-75
2023/07/31 14:43:26;;;;;;;6.13;3.40;;;;;;;;;;6275509;22;20007;-72
2023/07/31 14:45:53;;;;;;;6.45;3.33;;;;;;;;;;6275093;22;20011;-73
2023/07/31 14:48:19;;;;;;;5.28;3.28;;;;;;;;;;6275654;22;20039;-73
2023/07/31 14:50:45;;;;;;;5.85;3.42;;;;;;;;;;6272999;22;20004;-73
2023/07/31 14:53:10;;;;;;;4.95;3.40;;;;;;;;;;6247527;22;20016;-71
2023/07/31 14:55:36;;;;;;;7.88;3.63;;;;;;;;;;6275383;22;20426;-72